sensor_id;sensor_type;location;lat;lon;timestamp;noise_LAeq;noise_LA_min;noise_LA_max;noise_LA01;noise_LA95
69609;Laerm;56815;52.320;4.858;2023-04-03T00:00:07;36.84;33.86;40.21;;
69609;Laerm;56815;52.320;4.858;2023-04-03T00:00:17;39.39;34.35;44.55;;
69609;Laerm;56815;52.320;4.858;2023-04-03T00:00:28;41.49;36.05;46.61;;
69609;Laerm;56815;52.320;4.858;2023-04-03T00:00:38;40.32;34.90;45.20;;
69609;Laerm;56815;52.320;4.858;2023-04-03T00:00:48;39.38;35.56;45.23;;
69609;Laerm;56815;52.320;4.858;2023-04-03T00:00:59;37.78;33.33;40.25;;
69609;Laerm;56815;52.320;4.858;2023-04-03T00:01:10;37.81;34.70;41.58;;
69609;Laerm;56815;52.320;4.858;2023-04-03T00:01:20;38.62;35.06;44.68;;
69609;Laerm;56815;52.320;4.858;2023-04-03T00:01:31;36.90;34.15;40.75;;
69609;Laerm;56815;52.320;4.858;2023-04-03T00:01:41;36.35;33.12;38.54;;
69609;Laerm;56815;52.320;4.858;2023-04-03T00:01:51;37.56;34.35;41.15;;
69609;Laerm;56815;52.320;4.858;2023-04-03T00:02:02;37.83;35.37;40.20;;
69609;Laerm;56815;52.320;4.858;2023-04-03T00:02:12;38.44;35.05;41.33;;
69609;Laerm;56815;52.320;4.858;2023-04-03T00:02:22;37.17;33.89;39.73;;
69609;Laerm;56815;52.320;4.858;2023-04-03T00:02:32;36.27;34.26;38.31;;
69609;Laerm;56815;52.320;4.858;2023-04-03T00:02:43;36.06;33.78;38.67;;
69609;Laerm;56815;52.320;4.858;2023-04-03T00:02:53;36.85;34.60;40.01;;
69609;Laerm;56815;52.320;4.858;2023-04-03T00:03:03;36.38;34.25;39.46;;
69609;Laerm;56815;52.320;4.858;2023-04-03T00:03:13;36.70;34.01;39.93;;
69609;Laerm;56815;52.320;4.858;2023-04-03T00:03:24;35.57;33.02;38.35;;
69609;Laerm;56815;52.320;4.858;2023-04-03T00:03:34;35.04;32.91;37.46;;
69609;Laerm;56815;52.320;4.858;2023-04-03T00:03:45;34.58;32.26;38.01;;
69609;Laerm;56815;52.320;4.858;2023-04-03T00:03:55;35.50;33.43;37.68;;
69609;Laerm;56815;52.320;4.858;2023-04-03T00:04:06;35.21;32.49;37.30;;
69609;Laerm;56815;52.320;4.858;2023-04-03T00:04:16;35.25;33.29;37.14;;
69609;Laerm;56815;52.320;4.858;2023-04-03T00:04:26;35.49;33.81;37.52;;
69609;Laerm;56815;52.320;4.858;2023-04-03T00:04:36;34.74;32.65;37.21;;
69609;Laerm;56815;52.320;4.858;2023-04-03T00:04:49;35.47;33.56;37.78;;
69609;Laerm;56815;52.320;4.858;2023-04-03T00:05:00;35.72;33.71;38.85;;
69609;Laerm;56815;52.320;4.858;2023-04-03T00:05:10;36.27;33.90;39.53;;
69609;Laerm;56815;52.320;4.858;2023-04-03T00:05:21;35.98;33.90;40.95;;
69609;Laerm;56815;52.320;4.858;2023-04-03T00:05:31;35.27;32.76;37.81;;
69609;Laerm;56815;52.320;4.858;2023-04-03T00:05:41;35.47;33.39;37.34;;
69609;Laerm;56815;52.320;4.858;2023-04-03T00:05:51;34.65;32.44;36.38;;
69609;Laerm;56815;52.320;4.858;2023-04-03T00:06:02;34.89;32.95;36.94;;
69609;Laerm;56815;52.320;4.858;2023-04-03T00:06:13;35.30;32.63;37.85;;
69609;Laerm;56815;52.320;4.858;2023-04-03T00:06:23;36.53;34.55;38.72;;
69609;Laerm;56815;52.320;4.858;2023-04-03T00:06:34;35.96;34.32;37.90;;
69609;Laerm;56815;52.320;4.858;2023-04-03T00:06:45;35.82;33.89;37.63;;
69609;Laerm;56815;52.320;4.858;2023-04-03T00:06:55;35.20;33.02;38.46;;
69609;Laerm;56815;52.320;4.858;2023-04-03T00:07:05;35.11;33.04;38.71;;
69609;Laerm;56815;52.320;4.858;2023-04-03T00:07:16;35.27;32.45;37.20;;
69609;Laerm;56815;52.320;4.858;2023-04-03T00:07:26;35.11;33.05;38.98;;
69609;Laerm;56815;52.320;4.858;2023-04-03T00:07:36;35.14;32.71;36.85;;
69609;Laerm;56815;52.320;4.858;2023-04-03T00:07:47;35.05;32.90;37.56;;
69609;Laerm;56815;52.320;4.858;2023-04-03T00:07:57;35.97;33.69;38.42;;
69609;Laerm;56815;52.320;4.858;2023-04-03T00:08:07;36.12;33.87;38.36;;
69609;Laerm;56815;52.320;4.858;2023-04-03T00:08:19;35.56;32.58;37.88;;
69609;Laerm;56815;52.320;4.858;2023-04-03T00:08:29;36.97;34.69;39.54;;
69609;Laerm;56815;52.320;4.858;2023-04-03T00:08:40;36.55;34.16;39.27;;
69609;Laerm;56815;52.320;4.858;2023-04-03T00:08:51;35.50;33.20;37.67;;
69609;Laerm;56815;52.320;4.858;2023-04-03T00:09:02;36.11;33.71;39.44;;
69609;Laerm;56815;52.320;4.858;2023-04-03T00:09:12;35.17;33.42;38.26;;
69609;Laerm;56815;52.320;4.858;2023-04-03T00:09:22;35.63;33.80;38.22;;
69609;Laerm;56815;52.320;4.858;2023-04-03T00:09:32;35.32;33.34;38.14;;
69609;Laerm;56815;52.320;4.858;2023-04-03T00:09:43;35.16;32.66;38.66;;
69609;Laerm;56815;52.320;4.858;2023-04-03T00:09:53;34.61;32.94;36.70;;
69609;Laerm;56815;52.320;4.858;2023-04-03T00:10:03;35.07;32.79;37.75;;
69609;Laerm;56815;52.320;4.858;2023-04-03T00:10:14;35.09;32.47;38.54;;
69609;Laerm;56815;52.320;4.858;2023-04-03T00:10:25;34.85;32.73;37.57;;
69609;Laerm;56815;52.320;4.858;2023-04-03T00:10:36;36.45;34.17;38.82;;
69609;Laerm;56815;52.320;4.858;2023-04-03T00:10:46;35.74;33.22;37.97;;
69609;Laerm;56815;52.320;4.858;2023-04-03T00:10:56;35.58;33.82;37.56;;
69609;Laerm;56815;52.320;4.858;2023-04-03T00:11:07;36.05;33.44;38.67;;
69609;Laerm;56815;52.320;4.858;2023-04-03T00:11:18;36.20;33.24;44.35;;
69609;Laerm;56815;52.320;4.858;2023-04-03T00:11:29;35.56;32.75;42.81;;
69609;Laerm;56815;52.320;4.858;2023-04-03T00:11:40;43.16;33.28;60.49;;
69609;Laerm;56815;52.320;4.858;2023-04-03T00:11:50;37.54;33.12;52.25;;
69609;Laerm;56815;52.320;4.858;2023-04-03T00:12:00;35.04;32.99;37.23;;
69609;Laerm;56815;52.320;4.858;2023-04-03T00:12:11;34.97;32.82;37.16;;
69609;Laerm;56815;52.320;4.858;2023-04-03T00:12:21;34.67;32.42;36.69;;
69609;Laerm;56815;52.320;4.858;2023-04-03T00:12:31;34.29;31.91;36.71;;
69609;Laerm;56815;52.320;4.858;2023-04-03T00:12:42;35.58;33.20;38.00;;
69609;Laerm;56815;52.320;4.858;2023-04-03T00:12:52;36.09;32.38;51.25;;
69609;Laerm;56815;52.320;4.858;2023-04-03T00:13:03;34.18;32.46;36.47;;
69609;Laerm;56815;52.320;4.858;2023-04-03T00:13:13;33.75;31.29;36.09;;
69609;Laerm;56815;52.320;4.858;2023-04-03T00:13:24;34.60;32.87;36.72;;
69609;Laerm;56815;52.320;4.858;2023-04-03T00:13:35;35.77;32.71;52.51;;
69609;Laerm;56815;52.320;4.858;2023-04-03T00:13:45;35.48;33.01;46.72;;
69609;Laerm;56815;52.320;4.858;2023-04-03T00:13:56;35.84;33.61;44.62;;
69609;Laerm;56815;52.320;4.858;2023-04-03T00:14:06;35.29;33.06;37.28;;
69609;Laerm;56815;52.320;4.858;2023-04-03T00:14:17;35.21;33.19;37.76;;
69609;Laerm;56815;52.320;4.858;2023-04-03T00:14:27;34.58;32.49;37.02;;
69609;Laerm;56815;52.320;4.858;2023-04-03T00:14:37;34.07;32.31;35.79;;
69609;Laerm;56815;52.320;4.858;2023-04-03T00:14:47;35.03;32.93;37.22;;
69609;Laerm;56815;52.320;4.858;2023-04-03T00:14:58;35.29;32.79;39.76;;
69609;Laerm;56815;52.320;4.858;2023-04-03T00:15:08;35.46;33.60;37.63;;
69609;Laerm;56815;52.320;4.858;2023-04-03T00:15:19;36.04;33.72;38.28;;
69609;Laerm;56815;52.320;4.858;2023-04-03T00:15:29;36.90;32.78;52.11;;
69609;Laerm;56815;52.320;4.858;2023-04-03T00:15:40;34.87;32.68;38.25;;
69609;Laerm;56815;52.320;4.858;2023-04-03T00:15:50;37.29;33.33;50.51;;
69609;Laerm;56815;52.320;4.858;2023-04-03T00:16:01;36.60;33.78;46.97;;
69609;Laerm;56815;52.320;4.858;2023-04-03T00:16:11;41.39;33.10;61.13;;
69609;Laerm;56815;52.320;4.858;2023-04-03T00:16:22;37.22;33.39;51.97;;
69609;Laerm;56815;52.320;4.858;2023-04-03T00:16:32;36.48;34.35;39.20;;
69609;Laerm;56815;52.320;4.858;2023-04-03T00:16:42;36.77;34.45;39.65;;
69609;Laerm;56815;52.320;4.858;2023-04-03T00:16:53;36.93;33.81;39.24;;
69609;Laerm;56815;52.320;4.858;2023-04-03T00:17:03;37.25;34.79;39.46;;
69609;Laerm;56815;52.320;4.858;2023-04-03T00:17:13;37.07;34.01;39.85;;
69609;Laerm;56815;52.320;4.858;2023-04-03T00:17:23;37.14;34.63;39.52;;
69609;Laerm;56815;52.320;4.858;2023-04-03T00:17:34;37.30;35.03;39.89;;
69609;Laerm;56815;52.320;4.858;2023-04-03T00:17:44;36.35;32.91;38.38;;
69609;Laerm;56815;52.320;4.858;2023-04-03T00:17:55;36.41;33.94;39.55;;
69609;Laerm;56815;52.320;4.858;2023-04-03T00:18:05;36.46;33.92;41.18;;
69609;Laerm;56815;52.320;4.858;2023-04-03T00:18:16;36.97;34.98;39.17;;
69609;Laerm;56815;52.320;4.858;2023-04-03T00:18:26;36.39;33.85;39.78;;
69609;Laerm;56815;52.320;4.858;2023-04-03T00:18:37;35.88;34.11;38.27;;
69609;Laerm;56815;52.320;4.858;2023-04-03T00:18:47;35.62;33.53;37.56;;
69609;Laerm;56815;52.320;4.858;2023-04-03T00:18:58;35.26;32.83;37.21;;
69609;Laerm;56815;52.320;4.858;2023-04-03T00:19:08;34.55;32.77;36.42;;
69609;Laerm;56815;52.320;4.858;2023-04-03T00:19:18;34.15;32.34;36.09;;
69609;Laerm;56815;52.320;4.858;2023-04-03T00:19:29;34.93;32.51;37.78;;
69609;Laerm;56815;52.320;4.858;2023-04-03T00:19:39;35.60;33.64;37.40;;
69609;Laerm;56815;52.320;4.858;2023-04-03T00:19:50;35.83;33.39;37.50;;
69609;Laerm;56815;52.320;4.858;2023-04-03T00:20:00;36.71;33.59;39.53;;
69609;Laerm;56815;52.320;4.858;2023-04-03T00:20:11;35.23;33.51;36.90;;
69609;Laerm;56815;52.320;4.858;2023-04-03T00:20:21;34.56;32.57;36.38;;
69609;Laerm;56815;52.320;4.858;2023-04-03T00:20:32;34.37;31.95;37.15;;
69609;Laerm;56815;52.320;4.858;2023-04-03T00:20:42;35.23;33.36;37.61;;
69609;Laerm;56815;52.320;4.858;2023-04-03T00:20:52;35.44;33.26;39.16;;
69609;Laerm;56815;52.320;4.858;2023-04-03T00:21:03;35.61;33.78;37.49;;
69609;Laerm;56815;52.320;4.858;2023-04-03T00:21:13;35.41;33.42;38.19;;
69609;Laerm;56815;52.320;4.858;2023-04-03T00:21:25;35.54;33.44;37.89;;
69609;Laerm;56815;52.320;4.858;2023-04-03T00:21:36;35.39;33.27;37.72;;
69609;Laerm;56815;52.320;4.858;2023-04-03T00:21:46;35.92;34.11;38.13;;
69609;Laerm;56815;52.320;4.858;2023-04-03T00:21:56;35.62;33.33;38.36;;
69609;Laerm;56815;52.320;4.858;2023-04-03T00:22:06;36.03;33.77;38.32;;
69609;Laerm;56815;52.320;4.858;2023-04-03T00:22:17;35.97;33.80;38.14;;
69609;Laerm;56815;52.320;4.858;2023-04-03T00:22:27;35.54;33.12;37.42;;
69609;Laerm;56815;52.320;4.858;2023-04-03T00:22:38;35.00;33.18;37.01;;
69609;Laerm;56815;52.320;4.858;2023-04-03T00:22:48;35.13;32.51;37.57;;
69609;Laerm;56815;52.320;4.858;2023-04-03T00:22:59;35.47;33.33;38.09;;
69609;Laerm;56815;52.320;4.858;2023-04-03T00:23:10;35.29;32.77;37.64;;
69609;Laerm;56815;52.320;4.858;2023-04-03T00:23:20;35.60;33.20;41.85;;
69609;Laerm;56815;52.320;4.858;2023-04-03T00:23:31;34.46;32.65;36.40;;
69609;Laerm;56815;52.320;4.858;2023-04-03T00:23:41;36.04;33.38;39.02;;
69609;Laerm;56815;52.320;4.858;2023-04-03T00:23:51;35.17;32.19;37.54;;
69609;Laerm;56815;52.320;4.858;2023-04-03T00:24:02;35.19;33.25;37.38;;
69609;Laerm;56815;52.320;4.858;2023-04-03T00:24:12;36.08;33.65;42.07;;
69609;Laerm;56815;52.320;4.858;2023-04-03T00:24:23;36.32;33.59;39.74;;
69609;Laerm;56815;52.320;4.858;2023-04-03T00:24:33;35.74;33.64;37.59;;
69609;Laerm;56815;52.320;4.858;2023-04-03T00:24:43;36.20;34.17;38.39;;
69609;Laerm;56815;52.320;4.858;2023-04-03T00:24:54;36.28;33.59;39.52;;
69609;Laerm;56815;52.320;4.858;2023-04-03T00:25:04;35.59;33.28;37.36;;
69609;Laerm;56815;52.320;4.858;2023-04-03T00:25:14;35.49;33.50;38.05;;
69609;Laerm;56815;52.320;4.858;2023-04-03T00:25:25;35.62;32.97;37.37;;
69609;Laerm;56815;52.320;4.858;2023-04-03T00:25:35;35.18;33.14;36.93;;
69609;Laerm;56815;52.320;4.858;2023-04-03T00:25:45;34.66;33.05;36.78;;
69609;Laerm;56815;52.320;4.858;2023-04-03T00:25:56;34.77;31.97;36.62;;
69609;Laerm;56815;52.320;4.858;2023-04-03T00:26:06;35.44;32.89;37.10;;
69609;Laerm;56815;52.320;4.858;2023-04-03T00:26:16;35.62;33.99;37.44;;
69609;Laerm;56815;52.320;4.858;2023-04-03T00:26:27;35.89;33.49;38.18;;
69609;Laerm;56815;52.320;4.858;2023-04-03T00:26:37;35.71;33.24;40.11;;
69609;Laerm;56815;52.320;4.858;2023-04-03T00:26:47;35.31;33.07;37.69;;
69609;Laerm;56815;52.320;4.858;2023-04-03T00:26:57;35.70;32.82;40.52;;
69609;Laerm;56815;52.320;4.858;2023-04-03T00:27:08;35.86;33.25;39.30;;
69609;Laerm;56815;52.320;4.858;2023-04-03T00:27:18;35.60;32.99;38.24;;
69609;Laerm;56815;52.320;4.858;2023-04-03T00:27:28;35.76;33.02;38.69;;
69609;Laerm;56815;52.320;4.858;2023-04-03T00:27:39;34.90;32.70;36.95;;
69609;Laerm;56815;52.320;4.858;2023-04-03T00:27:49;34.55;32.45;36.41;;
69609;Laerm;56815;52.320;4.858;2023-04-03T00:28:00;34.93;33.02;37.57;;
69609;Laerm;56815;52.320;4.858;2023-04-03T00:28:10;35.67;33.78;37.72;;
69609;Laerm;56815;52.320;4.858;2023-04-03T00:28:20;35.13;32.56;37.06;;
69609;Laerm;56815;52.320;4.858;2023-04-03T00:28:31;34.47;32.44;36.58;;
69609;Laerm;56815;52.320;4.858;2023-04-03T00:28:41;34.39;32.60;36.96;;
69609;Laerm;56815;52.320;4.858;2023-04-03T00:28:51;33.63;31.32;37.23;;
69609;Laerm;56815;52.320;4.858;2023-04-03T00:29:02;33.53;31.50;35.75;;
69609;Laerm;56815;52.320;4.858;2023-04-03T00:29:12;33.30;31.46;36.86;;
69609;Laerm;56815;52.320;4.858;2023-04-03T00:29:23;33.48;31.22;36.37;;
69609;Laerm;56815;52.320;4.858;2023-04-03T00:29:33;33.47;31.81;35.23;;
69609;Laerm;56815;52.320;4.858;2023-04-03T00:29:43;38.17;31.45;50.29;;
69609;Laerm;56815;52.320;4.858;2023-04-03T00:29:53;33.90;31.43;35.64;;
69609;Laerm;56815;52.320;4.858;2023-04-03T00:30:04;34.20;32.44;36.04;;
69609;Laerm;56815;52.320;4.858;2023-04-03T00:30:15;33.94;32.40;36.57;;
69609;Laerm;56815;52.320;4.858;2023-04-03T00:30:25;34.15;32.16;35.91;;
69609;Laerm;56815;52.320;4.858;2023-04-03T00:30:36;34.28;32.42;37.30;;
69609;Laerm;56815;52.320;4.858;2023-04-03T00:30:46;34.26;32.25;36.35;;
69609;Laerm;56815;52.320;4.858;2023-04-03T00:30:56;34.95;32.60;37.07;;
69609;Laerm;56815;52.320;4.858;2023-04-03T00:31:06;35.89;33.53;38.95;;
69609;Laerm;56815;52.320;4.858;2023-04-03T00:31:17;35.11;31.81;37.46;;
69609;Laerm;56815;52.320;4.858;2023-04-03T00:31:27;34.45;32.11;43.17;;
69609;Laerm;56815;52.320;4.858;2023-04-03T00:31:37;34.45;32.18;37.92;;
69609;Laerm;56815;52.320;4.858;2023-04-03T00:31:48;35.27;32.95;37.19;;
69609;Laerm;56815;52.320;4.858;2023-04-03T00:31:58;35.22;33.18;37.69;;
69609;Laerm;56815;52.320;4.858;2023-04-03T00:32:09;34.92;32.89;37.33;;
69609;Laerm;56815;52.320;4.858;2023-04-03T00:32:19;35.51;33.01;37.66;;
69609;Laerm;56815;52.320;4.858;2023-04-03T00:32:29;35.19;33.04;37.27;;
69609;Laerm;56815;52.320;4.858;2023-04-03T00:32:40;35.44;33.26;39.23;;
69609;Laerm;56815;52.320;4.858;2023-04-03T00:32:51;35.56;33.21;38.81;;
69609;Laerm;56815;52.320;4.858;2023-04-03T00:33:01;35.10;32.58;38.10;;
69609;Laerm;56815;52.320;4.858;2023-04-03T00:33:12;35.16;32.99;37.44;;
69609;Laerm;56815;52.320;4.858;2023-04-03T00:33:22;35.36;33.27;37.21;;
69609;Laerm;56815;52.320;4.858;2023-04-03T00:33:34;36.12;33.90;38.52;;
69609;Laerm;56815;52.320;4.858;2023-04-03T00:33:44;35.90;33.78;38.62;;
69609;Laerm;56815;52.320;4.858;2023-04-03T00:33:55;35.45;33.35;37.48;;
69609;Laerm;56815;52.320;4.858;2023-04-03T00:34:05;35.13;33.04;36.75;;
69609;Laerm;56815;52.320;4.858;2023-04-03T00:34:15;35.30;32.96;37.80;;
69609;Laerm;56815;52.320;4.858;2023-04-03T00:34:26;36.00;32.94;42.07;;
69609;Laerm;56815;52.320;4.858;2023-04-03T00:34:36;35.88;33.69;38.49;;
69609;Laerm;56815;52.320;4.858;2023-04-03T00:34:46;36.06;33.03;38.00;;
69609;Laerm;56815;52.320;4.858;2023-04-03T00:34:56;35.59;33.78;40.73;;
69609;Laerm;56815;52.320;4.858;2023-04-03T00:35:07;35.56;33.87;38.30;;
69609;Laerm;56815;52.320;4.858;2023-04-03T00:35:18;36.01;33.72;38.85;;
69609;Laerm;56815;52.320;4.858;2023-04-03T00:35:29;36.26;33.86;40.53;;
69609;Laerm;56815;52.320;4.858;2023-04-03T00:35:39;36.47;34.28;41.60;;
69609;Laerm;56815;52.320;4.858;2023-04-03T00:35:50;36.15;33.96;39.41;;
69609;Laerm;56815;52.320;4.858;2023-04-03T00:36:05;36.18;34.05;41.24;;
69609;Laerm;56815;52.320;4.858;2023-04-03T00:36:16;35.99;33.93;38.60;;
69609;Laerm;56815;52.320;4.858;2023-04-03T00:36:26;35.94;34.09;37.76;;
69609;Laerm;56815;52.320;4.858;2023-04-03T00:36:37;35.84;33.55;38.12;;
69609;Laerm;56815;52.320;4.858;2023-04-03T00:36:47;35.91;33.50;37.74;;
69609;Laerm;56815;52.320;4.858;2023-04-03T00:36:57;36.41;33.96;38.89;;
69609;Laerm;56815;52.320;4.858;2023-04-03T00:37:07;35.76;33.52;37.58;;
69609;Laerm;56815;52.320;4.858;2023-04-03T00:37:18;35.55;33.01;37.95;;
69609;Laerm;56815;52.320;4.858;2023-04-03T00:37:28;36.23;34.27;38.19;;
69609;Laerm;56815;52.320;4.858;2023-04-03T00:37:38;36.17;33.91;38.22;;
69609;Laerm;56815;52.320;4.858;2023-04-03T00:37:52;36.01;33.72;38.02;;
69609;Laerm;56815;52.320;4.858;2023-04-03T00:38:03;36.03;33.72;38.65;;
69609;Laerm;56815;52.320;4.858;2023-04-03T00:38:14;36.17;34.08;38.14;;
69609;Laerm;56815;52.320;4.858;2023-04-03T00:38:25;35.63;33.63;37.63;;
69609;Laerm;56815;52.320;4.858;2023-04-03T00:38:35;35.69;33.65;37.51;;
69609;Laerm;56815;52.320;4.858;2023-04-03T00:38:46;36.27;33.59;38.40;;
69609;Laerm;56815;52.320;4.858;2023-04-03T00:38:56;36.33;33.84;39.06;;
69609;Laerm;56815;52.320;4.858;2023-04-03T00:39:06;35.97;33.71;38.19;;
69609;Laerm;56815;52.320;4.858;2023-04-03T00:39:17;36.23;34.15;39.40;;
69609;Laerm;56815;52.320;4.858;2023-04-03T00:39:27;36.71;34.53;39.11;;
69609;Laerm;56815;52.320;4.858;2023-04-03T00:39:37;37.09;34.25;38.82;;
69609;Laerm;56815;52.320;4.858;2023-04-03T00:39:48;37.60;35.46;40.01;;
69609;Laerm;56815;52.320;4.858;2023-04-03T00:39:58;36.81;34.61;39.21;;
69609;Laerm;56815;52.320;4.858;2023-04-03T00:40:08;36.83;34.66;38.97;;
69609;Laerm;56815;52.320;4.858;2023-04-03T00:40:19;36.66;34.41;38.68;;
69609;Laerm;56815;52.320;4.858;2023-04-03T00:40:34;35.40;32.89;37.90;;
69609;Laerm;56815;52.320;4.858;2023-04-03T00:40:45;34.86;32.61;37.00;;
69609;Laerm;56815;52.320;4.858;2023-04-03T00:40:56;35.70;33.55;38.68;;
69609;Laerm;56815;52.320;4.858;2023-04-03T00:41:06;34.77;33.13;36.94;;
69609;Laerm;56815;52.320;4.858;2023-04-03T00:41:17;35.36;33.30;37.04;;
69609;Laerm;56815;52.320;4.858;2023-04-03T00:41:27;35.68;33.60;38.04;;
69609;Laerm;56815;52.320;4.858;2023-04-03T00:41:37;35.25;31.89;37.03;;
69609;Laerm;56815;52.320;4.858;2023-04-03T00:41:48;35.19;33.50;36.66;;
69609;Laerm;56815;52.320;4.858;2023-04-03T00:41:58;35.03;32.58;37.27;;
69609;Laerm;56815;52.320;4.858;2023-04-03T00:42:08;34.66;32.51;36.65;;
69609;Laerm;56815;52.320;4.858;2023-04-03T00:42:19;35.60;33.21;38.44;;
69609;Laerm;56815;52.320;4.858;2023-04-03T00:42:29;36.06;32.97;39.92;;
69609;Laerm;56815;52.320;4.858;2023-04-03T00:42:40;36.23;33.43;39.40;;
69609;Laerm;56815;52.320;4.858;2023-04-03T00:42:51;35.94;33.70;38.71;;
69609;Laerm;56815;52.320;4.858;2023-04-03T00:43:02;36.42;33.87;39.22;;
69609;Laerm;56815;52.320;4.858;2023-04-03T00:43:20;35.78;33.35;38.22;;
69609;Laerm;56815;52.320;4.858;2023-04-03T00:43:31;36.58;33.47;39.62;;
69609;Laerm;56815;52.320;4.858;2023-04-03T00:43:41;35.24;33.06;36.86;;
69609;Laerm;56815;52.320;4.858;2023-04-03T00:43:51;34.76;32.13;36.53;;
69609;Laerm;56815;52.320;4.858;2023-04-03T00:44:18;35.41;33.03;37.80;;
69609;Laerm;56815;52.320;4.858;2023-04-03T00:45:34;35.55;33.28;38.29;;
69609;Laerm;56815;52.320;4.858;2023-04-03T00:45:49;35.34;33.14;38.17;;
69609;Laerm;56815;52.320;4.858;2023-04-03T00:46:00;35.97;33.35;39.17;;
69609;Laerm;56815;52.320;4.858;2023-04-03T00:46:10;35.11;32.65;38.71;;
69609;Laerm;56815;52.320;4.858;2023-04-03T00:46:20;35.20;32.68;37.41;;
69609;Laerm;56815;52.320;4.858;2023-04-03T00:46:31;36.70;34.33;38.72;;
69609;Laerm;56815;52.320;4.858;2023-04-03T00:46:41;36.49;33.93;39.30;;
69609;Laerm;56815;52.320;4.858;2023-04-03T00:46:51;35.89;33.47;38.37;;
69609;Laerm;56815;52.320;4.858;2023-04-03T00:47:02;35.98;33.73;38.39;;
69609;Laerm;56815;52.320;4.858;2023-04-03T00:47:15;36.45;34.04;39.49;;
69609;Laerm;56815;52.320;4.858;2023-04-03T00:47:26;35.87;33.60;38.11;;
69609;Laerm;56815;52.320;4.858;2023-04-03T00:47:37;34.88;32.90;37.85;;
69609;Laerm;56815;52.320;4.858;2023-04-03T00:47:49;35.31;33.11;38.54;;
69609;Laerm;56815;52.320;4.858;2023-04-03T00:48:00;35.73;33.68;37.85;;
69609;Laerm;56815;52.320;4.858;2023-04-03T00:48:13;36.35;34.11;38.62;;
69609;Laerm;56815;52.320;4.858;2023-04-03T00:48:40;36.19;33.75;39.70;;
69609;Laerm;56815;52.320;4.858;2023-04-03T00:48:51;35.13;32.91;38.10;;
69609;Laerm;56815;52.320;4.858;2023-04-03T00:49:01;36.12;33.27;40.46;;
69609;Laerm;56815;52.320;4.858;2023-04-03T00:49:11;36.61;34.29;39.16;;
69609;Laerm;56815;52.320;4.858;2023-04-03T00:49:21;35.94;33.43;38.87;;
69609;Laerm;56815;52.320;4.858;2023-04-03T00:49:32;35.52;33.00;37.50;;
69609;Laerm;56815;52.320;4.858;2023-04-03T00:49:42;35.28;33.14;37.55;;
69609;Laerm;56815;52.320;4.858;2023-04-03T00:49:53;35.10;33.06;37.14;;
69609;Laerm;56815;52.320;4.858;2023-04-03T00:50:03;34.97;32.97;37.03;;
69609;Laerm;56815;52.320;4.858;2023-04-03T00:50:14;34.94;32.91;38.70;;
69609;Laerm;56815;52.320;4.858;2023-04-03T00:50:25;34.98;33.17;37.23;;
69609;Laerm;56815;52.320;4.858;2023-04-03T00:50:37;36.06;33.82;38.34;;
69609;Laerm;56815;52.320;4.858;2023-04-03T00:50:48;35.90;33.27;38.17;;
69609;Laerm;56815;52.320;4.858;2023-04-03T00:50:59;34.99;32.60;37.93;;
69609;Laerm;56815;52.320;4.858;2023-04-03T00:51:14;34.87;32.93;36.49;;
69609;Laerm;56815;52.320;4.858;2023-04-03T00:51:26;34.52;32.68;36.62;;
69609;Laerm;56815;52.320;4.858;2023-04-03T00:51:37;34.56;32.95;36.31;;
69609;Laerm;56815;52.320;4.858;2023-04-03T00:51:47;34.94;33.03;37.63;;
69609;Laerm;56815;52.320;4.858;2023-04-03T00:51:57;34.79;32.82;37.17;;
69609;Laerm;56815;52.320;4.858;2023-04-03T00:52:10;34.41;32.23;37.01;;
69609;Laerm;56815;52.320;4.858;2023-04-03T00:52:23;35.39;32.91;37.25;;
69609;Laerm;56815;52.320;4.858;2023-04-03T00:52:35;35.39;33.10;37.79;;
69609;Laerm;56815;52.320;4.858;2023-04-03T00:52:47;35.90;33.62;39.49;;
69609;Laerm;56815;52.320;4.858;2023-04-03T00:52:59;34.85;32.58;37.13;;
69609;Laerm;56815;52.320;4.858;2023-04-03T00:53:11;34.67;32.40;36.58;;
69609;Laerm;56815;52.320;4.858;2023-04-03T00:53:23;34.61;32.45;37.36;;
69609;Laerm;56815;52.320;4.858;2023-04-03T00:53:43;35.63;33.22;45.63;;
69609;Laerm;56815;52.320;4.858;2023-04-03T00:53:55;35.04;32.84;38.73;;
69609;Laerm;56815;52.320;4.858;2023-04-03T00:54:06;34.71;32.58;36.82;;
69609;Laerm;56815;52.320;4.858;2023-04-03T00:54:18;33.83;31.80;35.73;;
69609;Laerm;56815;52.320;4.858;2023-04-03T00:54:28;34.27;32.24;36.51;;
69609;Laerm;56815;52.320;4.858;2023-04-03T00:54:39;34.56;32.26;37.16;;
69609;Laerm;56815;52.320;4.858;2023-04-03T00:54:51;33.91;32.04;35.76;;
69609;Laerm;56815;52.320;4.858;2023-04-03T00:55:04;33.97;31.96;36.25;;
69609;Laerm;56815;52.320;4.858;2023-04-03T00:55:15;34.21;32.36;36.33;;
69609;Laerm;56815;52.320;4.858;2023-04-03T00:55:26;33.98;32.00;35.93;;
69609;Laerm;56815;52.320;4.858;2023-04-03T00:55:36;33.69;31.57;35.80;;
69609;Laerm;56815;52.320;4.858;2023-04-03T00:55:48;34.10;31.81;35.96;;
69609;Laerm;56815;52.320;4.858;2023-04-03T00:55:59;34.36;32.56;37.74;;
69609;Laerm;56815;52.320;4.858;2023-04-03T00:56:10;34.43;32.22;36.44;;
69609;Laerm;56815;52.320;4.858;2023-04-03T00:56:23;34.56;32.50;36.43;;
69609;Laerm;56815;52.320;4.858;2023-04-03T00:56:34;34.58;32.42;37.10;;
69609;Laerm;56815;52.320;4.858;2023-04-03T00:56:45;34.69;32.48;36.59;;
69609;Laerm;56815;52.320;4.858;2023-04-03T00:56:56;34.87;32.61;36.84;;
69609;Laerm;56815;52.320;4.858;2023-04-03T00:57:07;34.94;32.56;37.40;;
69609;Laerm;56815;52.320;4.858;2023-04-03T00:57:18;34.44;32.03;36.20;;
69609;Laerm;56815;52.320;4.858;2023-04-03T00:57:29;33.63;31.90;35.21;;
69609;Laerm;56815;52.320;4.858;2023-04-03T00:57:40;33.80;31.83;35.62;;
69609;Laerm;56815;52.320;4.858;2023-04-03T00:57:51;33.59;31.45;35.46;;
69609;Laerm;56815;52.320;4.858;2023-04-03T00:58:03;33.61;31.19;35.86;;
69609;Laerm;56815;52.320;4.858;2023-04-03T00:58:15;33.98;32.09;36.21;;
69609;Laerm;56815;52.320;4.858;2023-04-03T00:58:33;33.80;31.94;36.81;;
69609;Laerm;56815;52.320;4.858;2023-04-03T00:58:51;34.06;32.02;37.17;;
69609;Laerm;56815;52.320;4.858;2023-04-03T00:59:04;33.86;31.74;36.54;;
69609;Laerm;56815;52.320;4.858;2023-04-03T00:59:20;34.07;32.06;36.91;;
69609;Laerm;56815;52.320;4.858;2023-04-03T00:59:35;33.34;31.30;35.38;;
69609;Laerm;56815;52.320;4.858;2023-04-03T00:59:49;43.70;31.58;57.51;;
69609;Laerm;56815;52.320;4.858;2023-04-03T01:00:03;33.40;31.40;35.24;;
69609;Laerm;56815;52.320;4.858;2023-04-03T01:00:15;33.53;31.41;35.99;;
69609;Laerm;56815;52.320;4.858;2023-04-03T01:00:27;34.11;31.89;39.90;;
69609;Laerm;56815;52.320;4.858;2023-04-03T01:00:38;33.42;31.46;35.21;;
69609;Laerm;56815;52.320;4.858;2023-04-03T01:00:52;33.43;31.15;36.17;;
69609;Laerm;56815;52.320;4.858;2023-04-03T01:01:07;33.67;31.63;36.30;;
69609;Laerm;56815;52.320;4.858;2023-04-03T01:01:19;34.01;32.63;35.64;;
69609;Laerm;56815;52.320;4.858;2023-04-03T01:01:30;34.18;31.88;36.19;;
69609;Laerm;56815;52.320;4.858;2023-04-03T01:01:41;34.32;32.43;36.23;;
69609;Laerm;56815;52.320;4.858;2023-04-03T01:01:56;34.98;32.49;38.09;;
69609;Laerm;56815;52.320;4.858;2023-04-03T01:02:06;35.47;32.68;39.73;;
69609;Laerm;56815;52.320;4.858;2023-04-03T01:02:17;35.10;32.94;37.58;;
69609;Laerm;56815;52.320;4.858;2023-04-03T01:02:27;35.30;32.63;38.15;;